createdAt,value
2023-04-22T00:02:14.719Z,10.90
2023-04-22T00:04:46.494Z,10.32
2023-04-22T00:07:14.629Z,11.73
2023-04-22T00:09:41.828Z,11.23
2023-04-22T00:12:08.669Z,11.32
2023-04-22T00:14:35.795Z,12.38
2023-04-22T00:17:02.412Z,12.55
2023-04-22T00:19:29.101Z,12.30
2023-04-22T00:21:55.551Z,11.80
2023-04-22T00:24:22.295Z,11.07
2023-04-22T00:26:48.766Z,11.43
2023-04-22T00:29:15.374Z,11.20
2023-04-22T00:31:41.959Z,12.07
2023-04-22T00:34:08.524Z,11.95
2023-04-22T00:36:35.111Z,11.45
2023-04-22T00:39:01.582Z,13.35
2023-04-22T00:41:28.164Z,12.05
2023-04-22T00:43:54.820Z,12.88
2023-04-22T00:46:21.396Z,13.60
2023-04-22T00:48:48.198Z,13.27
2023-04-22T00:51:14.761Z,11.88
2023-04-22T00:53:41.223Z,13.02
2023-04-22T00:56:07.838Z,12.10
2023-04-22T00:58:34.447Z,12.20
2023-04-22T01:01:01.107Z,15.23
2023-04-22T01:03:28.736Z,16.00
2023-04-22T01:05:56.248Z,13.65
2023-04-22T01:08:24.879Z,14.25
2023-04-22T01:10:51.451Z,13.57
2023-04-22T01:13:17.915Z,13.55
2023-04-22T01:15:44.368Z,13.43
2023-04-22T01:18:11.147Z,12.35
2023-04-22T01:20:37.874Z,12.68
2023-04-22T01:23:10.049Z,12.15
2023-04-22T01:25:37.532Z,13.50
2023-04-22T01:28:04.178Z,13.50
2023-04-22T01:30:31.046Z,12.63
2023-04-22T01:32:57.627Z,12.23
2023-04-22T01:35:27.156Z,11.45
2023-04-22T01:37:53.659Z,12.30
2023-04-22T01:40:22.720Z,10.98
2023-04-22T01:42:49.414Z,10.68
2023-04-22T01:45:17.525Z,10.55
2023-04-22T01:47:44.457Z,10.40
2023-04-22T01:50:11.434Z,10.80
2023-04-22T01:52:39.536Z,10.43
2023-04-22T01:55:07.253Z,9.82
2023-04-22T01:57:33.773Z,9.68
2023-04-22T02:00:01.757Z,9.38
2023-04-22T02:02:28.329Z,10.68
2023-04-22T02:04:55.099Z,9.77
2023-04-22T02:07:21.676Z,9.35
2023-04-22T02:09:50.282Z,8.07
2023-04-22T02:12:17.405Z,9.25
2023-04-22T02:14:43.913Z,8.13
2023-04-22T02:17:10.792Z,8.00
2023-04-22T02:19:37.495Z,7.95
2023-04-22T02:22:04.419Z,7.28
2023-04-22T02:24:31.550Z,7.60
2023-04-22T02:26:58.396Z,7.57
2023-04-22T02:29:24.869Z,7.28
2023-04-22T02:31:51.542Z,7.10
2023-04-22T02:34:18.247Z,7.75
2023-04-22T02:36:44.689Z,7.07
2023-04-22T02:39:11.618Z,7.40
2023-04-22T02:41:38.128Z,6.95
2023-04-22T02:44:04.618Z,7.13
2023-04-22T02:46:31.163Z,7.20
2023-04-22T02:48:57.664Z,7.07
2023-04-22T02:51:24.144Z,7.13
2023-04-22T02:53:51.081Z,8.18
2023-04-22T02:56:17.617Z,7.05
2023-04-22T02:58:44.183Z,7.00
2023-04-22T03:01:11.786Z,7.07
2023-04-22T03:03:38.724Z,6.65
2023-04-22T03:06:08.047Z,7.57
2023-04-22T03:08:34.512Z,8.60
2023-04-22T03:11:01.060Z,8.00
2023-04-22T03:13:27.533Z,8.60
2023-04-22T03:15:54.027Z,8.43
2023-04-22T03:18:20.645Z,8.75
2023-04-22T03:20:47.450Z,8.60
2023-04-22T03:23:14.011Z,8.50
2023-04-22T03:25:41.247Z,8.98
2023-04-22T03:28:07.838Z,8.90
2023-04-22T03:30:34.340Z,8.35
2023-04-22T03:33:00.856Z,8.50
2023-04-22T03:35:27.346Z,8.52
2023-04-22T03:37:54.108Z,8.43
2023-04-22T03:40:20.795Z,8.32
2023-04-22T03:42:47.318Z,8.07
2023-04-22T03:45:14.188Z,7.43
2023-04-22T03:47:40.755Z,8.70
2023-04-22T03:50:07.394Z,7.85
2023-04-22T03:52:33.877Z,8.23
2023-04-22T03:55:00.534Z,8.63
2023-04-22T03:57:27.052Z,8.60
2023-04-22T03:59:53.567Z,8.00
2023-04-22T04:02:20.214Z,8.60
2023-04-22T04:04:47.383Z,7.13
2023-04-22T04:07:14.448Z,7.82
2023-04-22T04:09:41.410Z,7.97
2023-04-22T04:12:08.235Z,8.35
2023-04-22T04:14:34.784Z,8.48
2023-04-22T04:17:01.285Z,8.52
2023-04-22T04:19:27.877Z,8.13
2023-04-22T04:21:54.332Z,8.38
2023-04-22T04:24:20.861Z,9.13
2023-04-22T04:26:48.969Z,10.32
2023-04-22T04:29:15.870Z,7.95
2023-04-22T04:31:42.416Z,7.10
2023-04-22T04:34:08.968Z,7.55
2023-04-22T04:36:35.505Z,8.77
2023-04-22T04:39:02.085Z,8.68
2023-04-22T04:41:29.539Z,7.90
2023-04-22T04:43:56.583Z,9.55
2023-04-22T04:46:23.539Z,9.52
2023-04-22T04:48:51.729Z,7.78
2023-04-22T04:51:20.356Z,7.32
2023-04-22T04:53:47.066Z,7.10
2023-04-22T04:56:13.981Z,7.15
2023-04-22T04:58:40.493Z,6.68
2023-04-22T05:01:09.460Z,6.65
2023-04-22T05:03:36.649Z,8.57
2023-04-22T05:06:04.359Z,7.30
2023-04-22T05:08:30.859Z,9.43
2023-04-22T05:10:57.378Z,9.55
2023-04-22T05:13:26.304Z,8.95
2023-04-22T05:15:52.908Z,8.90
2023-04-22T05:18:19.455Z,7.88
2023-04-22T05:20:46.003Z,7.40
2023-04-22T05:23:12.556Z,7.03
2023-04-22T05:25:39.217Z,7.03
2023-04-22T05:28:06.136Z,7.32
2023-04-22T05:30:32.612Z,7.50
2023-04-22T05:32:59.274Z,6.70
2023-04-22T05:35:25.842Z,7.10
2023-04-22T05:37:52.411Z,6.82
2023-04-22T05:40:19.027Z,7.45
2023-04-22T05:42:45.545Z,6.43
2023-04-22T05:45:12.159Z,7.63
2023-04-22T05:47:38.665Z,8.07
2023-04-22T05:50:05.795Z,7.63
2023-04-22T05:52:32.327Z,8.18
2023-04-22T05:54:58.857Z,11.45
2023-04-22T05:57:25.698Z,7.15
2023-04-22T05:59:52.218Z,7.20
2023-04-22T06:02:19.112Z,7.30
2023-04-22T06:04:46.060Z,8.20
2023-04-22T06:07:12.847Z,6.70
2023-04-22T06:09:39.643Z,6.95
2023-04-22T06:12:06.570Z,6.10
2023-04-22T06:14:33.379Z,6.60
2023-04-22T06:16:59.905Z,6.07
2023-04-22T06:19:27.005Z,6.45
2023-04-22T06:21:53.729Z,5.97
2023-04-22T06:24:22.121Z,7.05
2023-04-22T06:26:48.888Z,8.10
2023-04-22T06:29:15.405Z,8.85
2023-04-22T06:31:41.964Z,5.88
2023-04-22T06:34:08.468Z,5.95
2023-04-22T06:36:37.710Z,5.85
2023-04-22T06:39:05.692Z,5.90
2023-04-22T06:41:33.175Z,5.57
2023-04-22T06:43:59.720Z,5.40
2023-04-22T06:46:26.225Z,6.72
2023-04-22T06:48:52.747Z,5.55
2023-04-22T06:51:19.327Z,6.05
2023-04-22T06:53:46.208Z,5.78
2023-04-22T06:56:12.722Z,5.70
2023-04-22T06:58:39.290Z,5.88
2023-04-22T07:01:05.808Z,6.10
2023-04-22T07:03:32.528Z,5.97
2023-04-22T07:05:59.297Z,5.88
2023-04-22T07:08:25.857Z,8.93
2023-04-22T07:10:52.812Z,6.25
2023-04-22T07:13:19.371Z,5.47
2023-04-22T07:15:46.386Z,5.97
2023-04-22T07:18:13.016Z,5.43
2023-04-22T07:20:39.538Z,5.63
2023-04-22T07:23:06.125Z,8.07
2023-04-22T07:25:32.637Z,10.57
2023-04-22T07:27:59.228Z,5.50
2023-04-22T07:30:25.935Z,5.50
2023-04-22T07:32:52.479Z,5.72
2023-04-22T07:35:19.040Z,5.95
2023-04-22T07:37:45.678Z,5.43
2023-04-22T07:40:14.077Z,5.60
2023-04-22T07:42:40.797Z,6.13
2023-04-22T07:45:08.015Z,5.65
2023-04-22T07:47:34.581Z,7.07
2023-04-22T07:50:01.117Z,6.10
2023-04-22T07:52:27.761Z,5.70
2023-04-22T07:54:54.265Z,5.53
2023-04-22T07:57:22.570Z,5.93
2023-04-22T07:59:49.803Z,6.30
2023-04-22T08:02:16.381Z,5.55
2023-04-22T08:04:43.193Z,5.70
2023-04-22T08:07:29.765Z,5.50
2023-04-22T08:09:56.813Z,6.22
2023-04-22T08:12:23.536Z,5.10
2023-04-22T08:14:50.108Z,5.20
2023-04-22T08:17:16.657Z,5.07
2023-04-22T08:19:43.338Z,4.80
2023-04-22T08:22:09.917Z,5.20
2023-04-22T08:24:36.429Z,5.25
2023-04-22T08:27:02.941Z,6.03
2023-04-22T08:29:29.482Z,5.38
2023-04-22T08:31:55.991Z,5.63
2023-04-22T08:34:22.583Z,6.40
2023-04-22T08:36:49.103Z,5.72
2023-04-22T08:39:15.926Z,6.10
2023-04-22T08:41:43.939Z,5.38
2023-04-22T08:44:11.436Z,5.50
2023-04-22T08:46:38.386Z,5.45
2023-04-22T08:49:05.319Z,5.20
2023-04-22T08:51:33.547Z,5.03
2023-04-22T08:54:00.836Z,5.40
2023-04-22T08:56:29.093Z,5.70
2023-04-22T08:58:55.839Z,5.05
2023-04-22T09:01:23.158Z,5.13
2023-04-22T09:03:50.051Z,5.60
2023-04-22T09:06:19.990Z,5.57
2023-04-22T09:08:47.589Z,4.93
2023-04-22T09:11:14.164Z,5.22
2023-04-22T09:13:40.987Z,5.32
2023-04-22T09:16:07.614Z,6.25
2023-04-22T09:18:45.304Z,5.35
2023-04-22T09:21:12.357Z,6.93
2023-04-22T09:23:52.661Z,5.72
2023-04-22T09:26:21.813Z,5.97
2023-04-22T09:28:56.486Z,5.40
2023-04-22T09:31:23.306Z,5.40
2023-04-22T09:33:52.050Z,6.03
2023-04-22T09:36:31.164Z,6.53
2023-04-22T09:39:04.076Z,7.20
2023-04-22T09:41:32.681Z,6.43
2023-04-22T09:44:00.971Z,6.68
2023-04-22T09:46:29.130Z,6.65
2023-04-22T09:48:56.500Z,6.10
2023-04-22T09:51:23.173Z,6.18
2023-04-22T09:53:59.673Z,6.47
2023-04-22T09:56:42.813Z,5.57
2023-04-22T09:59:09.595Z,6.03
2023-04-22T10:01:37.677Z,6.00
2023-04-22T10:04:04.497Z,6.75
2023-04-22T10:06:31.906Z,6.50
2023-04-22T10:08:59.524Z,6.00
2023-04-22T10:11:26.191Z,6.40
2023-04-22T10:13:55.267Z,5.82
2023-04-22T10:16:23.197Z,6.18
2023-04-22T10:18:51.232Z,6.15
2023-04-22T10:21:18.909Z,6.45
2023-04-22T10:23:47.968Z,5.82
2023-04-22T10:26:40.880Z,5.57
2023-04-22T10:29:09.587Z,5.45
2023-04-22T10:31:38.995Z,6.43
2023-04-22T10:34:11.204Z,6.53
2023-04-22T10:36:53.285Z,7.20
2023-04-22T10:39:22.070Z,6.80
2023-04-22T10:42:15.357Z,6.60
2023-04-22T10:44:53.498Z,6.22
2023-04-22T10:47:36.433Z,6.22
2023-04-22T10:50:15.309Z,6.20
2023-04-22T10:52:43.328Z,5.85
2023-04-22T10:55:10.274Z,6.30
2023-04-22T10:57:43.674Z,6.20
2023-04-22T11:00:41.876Z,6.45
2023-04-22T11:03:14.725Z,6.45
2023-04-22T11:05:41.659Z,6.15
2023-04-22T11:08:20.699Z,6.70
2023-04-22T11:10:49.858Z,6.30
2023-04-22T11:13:23.780Z,6.10
2023-04-22T11:15:54.118Z,6.22
2023-04-22T11:18:26.253Z,6.32
2023-04-22T11:20:53.682Z,6.15
2023-04-22T11:23:23.662Z,5.93
2023-04-22T11:25:55.362Z,6.53
2023-04-22T11:28:23.003Z,6.63
2023-04-22T11:30:49.702Z,6.45
2023-04-22T11:33:16.680Z,5.85
2023-04-22T11:35:43.656Z,6.80
2023-04-22T11:38:10.514Z,6.55
2023-04-22T11:40:40.622Z,6.07
2023-04-22T11:43:09.875Z,6.55
2023-04-22T11:45:37.732Z,6.55
2023-04-22T11:48:06.369Z,7.40
2023-04-22T11:50:35.836Z,6.40
2023-04-22T11:53:12.507Z,6.55
2023-04-22T11:55:40.789Z,7.05
2023-04-22T11:58:09.470Z,7.13
2023-04-22T12:00:41.012Z,6.70
2023-04-22T12:03:28.995Z,6.43
2023-04-22T12:06:03.193Z,7.05
2023-04-22T12:08:39.784Z,6.80
2023-04-22T12:11:07.876Z,6.22
2023-04-22T12:13:42.015Z,6.70
2023-04-22T12:16:13.412Z,6.65
2023-04-22T12:18:51.226Z,6.35
2023-04-22T12:21:20.389Z,6.40
2023-04-22T12:23:52.613Z,6.25
2023-04-22T12:26:23.741Z,6.22
2023-04-22T12:28:52.256Z,5.88
2023-04-22T12:31:18.884Z,6.00
2023-04-22T12:33:46.482Z,6.40
2023-04-22T12:36:13.397Z,6.13
2023-04-22T12:38:40.105Z,5.95
2023-04-22T12:41:07.214Z,6.43
2023-04-22T12:43:36.645Z,6.90
2023-04-22T12:46:04.220Z,6.50
2023-04-22T12:48:31.678Z,6.30
2023-04-22T12:50:58.852Z,6.40
2023-04-22T12:53:26.777Z,6.43
2023-04-22T12:55:53.452Z,6.35
2023-04-22T12:58:19.971Z,6.78
2023-04-22T13:00:46.551Z,7.40
2023-04-22T13:03:13.236Z,6.85
2023-04-22T13:05:40.052Z,6.72
2023-04-22T13:08:08.081Z,7.28
2023-04-22T13:10:35.645Z,6.40
2023-04-22T13:13:17.870Z,6.90
2023-04-22T13:15:53.603Z,6.22
2023-04-22T13:18:22.049Z,6.65
2023-04-22T13:20:48.651Z,6.43
2023-04-22T13:23:17.041Z,7.38
2023-04-22T13:25:44.098Z,7.15
2023-04-22T13:28:11.553Z,7.15
2023-04-22T13:30:38.664Z,7.80
2023-04-22T13:33:05.301Z,6.78
2023-04-22T13:35:32.473Z,6.85
2023-04-22T13:37:59.128Z,6.70
2023-04-22T13:40:27.318Z,7.10
2023-04-22T13:42:54.422Z,6.88
2023-04-22T13:45:21.242Z,7.10
2023-04-22T13:47:47.850Z,7.15
2023-04-22T13:50:14.353Z,7.05
2023-04-22T13:52:41.514Z,7.72
2023-04-22T13:55:08.875Z,7.95
2023-04-22T13:57:35.514Z,8.35
2023-04-22T14:00:02.141Z,7.85
2023-04-22T14:02:28.833Z,7.15
2023-04-22T14:04:55.465Z,7.20
2023-04-22T14:07:22.091Z,6.82
2023-04-22T14:09:48.689Z,6.47
2023-04-22T14:12:15.335Z,6.85
2023-04-22T14:14:42.140Z,6.85
2023-04-22T14:17:08.869Z,7.18
2023-04-22T14:19:38.988Z,7.45
2023-04-22T14:22:06.482Z,7.63
2023-04-22T14:24:33.191Z,6.75
2023-04-22T14:27:01.604Z,6.72
2023-04-22T14:29:29.858Z,6.47
2023-04-22T14:31:57.986Z,6.82
2023-04-22T14:34:24.563Z,7.28
2023-04-22T14:36:51.141Z,7.25
2023-04-22T14:39:17.646Z,7.68
2023-04-22T14:41:44.331Z,7.13
2023-04-22T14:44:10.957Z,7.43
2023-04-22T14:46:37.583Z,7.65
2023-04-22T14:49:04.319Z,8.10
2023-04-22T14:51:32.701Z,6.85
2023-04-22T14:53:59.217Z,6.68
2023-04-22T14:56:25.791Z,7.55
2023-04-22T14:58:52.321Z,6.63
2023-04-22T15:01:20.668Z,6.68
2023-04-22T15:03:48.824Z,6.60
2023-04-22T15:06:15.643Z,11.30
2023-04-22T15:08:42.166Z,7.20
2023-04-22T15:11:08.749Z,6.93
2023-04-22T15:13:36.048Z,7.00
2023-04-22T15:16:02.620Z,7.10
2023-04-22T15:18:29.301Z,6.90
2023-04-22T15:20:55.850Z,7.10
2023-04-22T15:23:25.469Z,6.55
2023-04-22T15:25:52.062Z,6.88
2023-04-22T15:28:18.605Z,6.70
2023-04-22T15:30:45.504Z,6.75
2023-04-22T15:33:12.167Z,6.53
2023-04-22T15:35:38.750Z,6.60
2023-04-22T15:38:05.863Z,6.30
2023-04-22T15:40:32.384Z,5.70
2023-04-22T15:42:58.872Z,6.00
2023-04-22T15:45:25.441Z,6.13
2023-04-22T15:47:53.363Z,5.88
2023-04-22T15:50:20.144Z,6.38
2023-04-22T15:52:46.635Z,5.78
2023-04-22T15:55:13.418Z,6.20
2023-04-22T15:57:39.939Z,6.80
2023-04-22T16:00:12.963Z,7.25
2023-04-22T16:02:41.004Z,7.10
2023-04-22T16:05:08.075Z,6.78
2023-04-22T16:07:34.957Z,6.30
2023-04-22T16:10:01.691Z,7.13
2023-04-22T16:12:28.308Z,7.07
2023-04-22T16:14:54.940Z,6.45
2023-04-22T16:17:21.485Z,6.97
2023-04-22T16:19:48.389Z,6.45
2023-04-22T16:22:15.055Z,6.75
2023-04-22T16:24:44.007Z,8.10
2023-04-22T16:27:16.426Z,7.20
2023-04-22T16:29:43.714Z,13.48
2023-04-22T16:32:10.782Z,7.32
2023-04-22T16:34:38.407Z,7.43
2023-04-22T16:37:05.413Z,9.27
2023-04-22T16:39:32.027Z,18.63
2023-04-22T16:41:58.937Z,7.50
2023-04-22T16:44:25.671Z,6.55
2023-04-22T16:46:52.272Z,6.93
2023-04-22T16:49:18.835Z,5.78
2023-04-22T16:51:45.456Z,6.43
2023-04-22T16:54:11.971Z,7.30
2023-04-22T16:56:38.532Z,7.63
2023-04-22T16:59:05.143Z,6.05
2023-04-22T17:01:31.813Z,8.05
2023-04-22T17:03:58.561Z,6.88
2023-04-22T17:06:25.225Z,5.70
2023-04-22T17:08:52.702Z,5.70
2023-04-22T17:11:19.466Z,5.88
2023-04-22T17:13:46.003Z,6.22
2023-04-22T17:16:12.624Z,6.00
2023-04-22T17:18:39.340Z,5.93
2023-04-22T17:21:05.988Z,5.88
2023-04-22T17:23:32.487Z,6.13
2023-04-22T17:25:59.951Z,6.95
2023-04-22T17:28:26.603Z,7.22
2023-04-22T17:30:53.298Z,6.55
2023-04-22T17:33:19.861Z,6.32
2023-04-22T17:35:46.436Z,5.85
2023-04-22T17:38:14.113Z,6.00
2023-04-22T17:40:40.686Z,6.68
2023-04-22T17:43:07.260Z,6.78
2023-04-22T17:45:33.815Z,6.38
2023-04-22T17:48:00.489Z,6.97
2023-04-22T17:50:27.111Z,6.57
2023-04-22T17:52:53.809Z,6.78
2023-04-22T17:55:20.606Z,6.30
2023-04-22T17:57:47.159Z,6.57
2023-04-22T18:00:18.059Z,6.15
2023-04-22T18:02:44.819Z,7.32
2023-04-22T18:05:11.563Z,5.68
2023-04-22T18:07:38.164Z,6.13
2023-04-22T18:10:05.172Z,5.95
2023-04-22T18:12:31.876Z,6.07
2023-04-22T18:14:58.593Z,5.82
2023-04-22T18:17:25.184Z,6.32
2023-04-22T18:20:00.085Z,6.10
2023-04-22T18:22:36.815Z,6.65
2023-04-22T18:25:03.521Z,5.75
2023-04-22T18:27:30.046Z,5.88
2023-04-22T18:29:56.531Z,6.93
2023-04-22T18:32:23.111Z,5.93
2023-04-22T18:34:49.647Z,6.18
2023-04-22T18:37:16.307Z,6.38
2023-04-22T18:39:42.947Z,6.97
2023-04-22T18:42:09.608Z,6.93
2023-04-22T18:44:36.215Z,6.57
2023-04-22T18:47:02.765Z,6.13
2023-04-22T18:49:33.625Z,7.45
2023-04-22T18:52:02.022Z,8.18
2023-04-22T18:54:30.047Z,6.57
2023-04-22T18:56:58.317Z,7.80
2023-04-22T18:59:24.950Z,6.97
2023-04-22T19:01:51.641Z,6.50
2023-04-22T19:04:18.297Z,6.70
2023-04-22T19:06:45.073Z,6.70
2023-04-22T19:09:11.918Z,6.60
2023-04-22T19:11:38.660Z,8.70
2023-04-22T19:14:05.548Z,6.07
2023-04-22T19:16:33.883Z,6.28
2023-04-22T19:19:00.535Z,7.75
2023-04-22T19:21:27.717Z,6.28
2023-04-22T19:23:54.497Z,6.80
2023-04-22T19:26:22.046Z,6.97
2023-04-22T19:28:50.065Z,6.03
2023-04-22T19:31:17.317Z,6.25
2023-04-22T19:33:44.388Z,6.82
2023-04-22T19:36:10.933Z,7.25
2023-04-22T19:38:37.475Z,6.63
2023-04-22T19:41:04.134Z,6.88
2023-04-22T19:43:30.693Z,5.97
2023-04-22T19:45:57.208Z,6.32
2023-04-22T19:48:24.249Z,6.65
2023-04-22T19:50:50.815Z,7.03
2023-04-22T19:53:18.603Z,5.63
2023-04-22T19:55:45.964Z,5.93
2023-04-22T19:58:13.038Z,6.85
2023-04-22T20:00:39.800Z,9.15
2023-04-22T20:03:07.058Z,6.97
2023-04-22T20:05:34.077Z,6.50
2023-04-22T20:08:01.373Z,7.45
2023-04-22T20:10:28.103Z,7.60
2023-04-22T20:12:54.983Z,7.75
2023-04-22T20:15:21.826Z,7.97
2023-04-22T20:17:48.883Z,8.23
2023-04-22T20:20:17.441Z,10.15
2023-04-22T20:22:45.774Z,11.80
2023-04-22T20:25:14.440Z,12.68
2023-04-22T20:27:41.354Z,13.02
2023-04-22T20:30:08.951Z,14.88
2023-04-22T20:32:36.766Z,15.07
2023-04-22T20:35:04.180Z,15.00
2023-04-22T20:37:36.228Z,16.00
2023-04-22T20:40:04.843Z,15.85
2023-04-22T20:42:33.181Z,15.57
2023-04-22T20:45:01.227Z,16.10
2023-04-22T20:47:27.910Z,14.65
2023-04-22T20:49:54.469Z,16.58
2023-04-22T20:52:21.139Z,15.18
2023-04-22T20:54:54.857Z,17.33
2023-04-22T20:57:21.516Z,18.27
2023-04-22T20:59:48.173Z,19.52
2023-04-22T21:02:16.652Z,20.27
2023-04-22T21:04:43.682Z,21.27
2023-04-22T21:07:12.005Z,21.52
2023-04-22T21:09:38.711Z,23.50
2023-04-22T21:12:05.761Z,24.88
2023-04-22T21:14:32.614Z,24.73
2023-04-22T21:17:13.627Z,25.17
2023-04-22T21:19:41.203Z,26.30
2023-04-22T21:22:07.957Z,26.08
2023-04-22T21:24:35.165Z,28.17
2023-04-22T21:27:03.650Z,27.15
2023-04-22T21:29:31.533Z,25.00
2023-04-22T21:32:08.116Z,26.02
2023-04-22T21:34:37.780Z,27.45
2023-04-22T21:37:05.667Z,25.05
2023-04-22T21:39:32.349Z,25.67
2023-04-22T21:41:59.045Z,25.85
2023-04-22T21:44:26.588Z,26.20
2023-04-22T21:46:53.126Z,26.20
2023-04-22T21:49:20.665Z,36.83
2023-04-22T21:51:47.248Z,35.33
2023-04-22T21:54:13.788Z,40.92
2023-04-22T21:56:40.486Z,42.40
2023-04-22T21:59:06.999Z,43.42
2023-04-22T22:01:33.859Z,42.08
2023-04-22T22:04:01.045Z,40.25
2023-04-22T22:06:28.521Z,38.03
2023-04-22T22:08:55.731Z,33.45
2023-04-22T22:13:51.952Z,32.05
2023-04-22T22:16:19.117Z,32.17
2023-04-22T22:18:45.886Z,31.02
2023-04-22T22:21:12.956Z,30.50
2023-04-22T22:23:39.519Z,30.08
2023-04-22T22:26:06.221Z,30.55
2023-04-22T22:28:32.747Z,31.25
2023-04-22T22:31:02.380Z,30.08
2023-04-22T22:33:29.604Z,32.95
2023-04-22T22:35:56.733Z,32.75
2023-04-22T22:38:23.242Z,32.67
2023-04-22T22:40:49.750Z,33.10
2023-04-22T22:43:16.401Z,32.08
2023-04-22T22:45:43.049Z,35.30
2023-04-22T22:48:09.687Z,33.38
2023-04-22T22:50:36.223Z,33.03
2023-04-22T22:53:02.844Z,35.60
2023-04-22T22:55:29.387Z,32.65
2023-04-22T22:57:55.930Z,31.23
2023-04-22T23:00:22.507Z,33.17
2023-04-22T23:02:49.172Z,35.20
2023-04-22T23:05:16.076Z,35.28
2023-04-22T23:07:42.631Z,35.45
2023-04-22T23:10:09.606Z,33.25
2023-04-22T23:12:36.344Z,34.80
2023-04-22T23:15:03.090Z,34.08
2023-04-22T23:17:29.764Z,34.13
2023-04-22T23:19:56.500Z,36.30
2023-04-22T23:22:23.512Z,36.42
2023-04-22T23:24:50.358Z,39.67
2023-04-22T23:27:17.510Z,36.25
2023-04-22T23:29:44.382Z,36.88
2023-04-22T23:32:14.967Z,38.80
2023-04-22T23:34:44.894Z,43.53
2023-04-22T23:37:14.180Z,43.30
2023-04-22T23:39:41.981Z,41.47
2023-04-22T23:42:08.553Z,39.17
2023-04-22T23:44:35.014Z,43.08
2023-04-22T23:47:01.678Z,44.35
2023-04-22T23:49:29.183Z,46.80
2023-04-22T23:51:55.915Z,45.38
2023-04-22T23:54:22.628Z,43.28
2023-04-22T23:56:49.460Z,49.70
2023-04-22T23:59:16.388Z,46.80
